Ellisville, Illinois
Current Conditions -  °F | °C
As of 1:35 PM on Thursday 30 Oct 2014 (Local Time) from KMQB Reporting Station
Overcast Overcast  
Wind Chill: 51°   Ceiling: 7500
Heat Index: 51°   Visibility: 10mi
Dew Point: 40°   Wind: 12mph
Humidity: 66%   Direction: 120°ESE
Pressure: 30.06"   Gusts: NA
Location:  40.63°N, 90.31°W
Report Text: KMQB 301835Z AUTO 12010KT 10SM BKN075 OVC085 11/05 A3006 RMK AO2 T01070046
Loading
Personal Weather Stations






























Interactive Weather Map
Tropical Storm Tracking
New forecast layout! Learn more

10-Day Weather Forecast

Advertisements
Track Severe Weather on mobile